Time;durP1;ratioP1;P1;durP2;ratioP2;P2;SDS_P1;SDS_P2;PMS_P1;PMS_P2;Temp;Humidity;BMP_temperature;BMP_pressure;BME280_temperature;BME280_humidity;BME280_pressure;Samples;Min_cycle;Max_cycle;Signal;HPM_P1;HPM_P2
2021/03/03 00:00:16;;;;;;;2.17;1.97;;;;;;;2.24;90.74;101888.91;5069653;28;20174;-76
2021/03/03 00:02:42;;;;;;;2.17;1.63;;;;;;;2.20;90.73;101882.31;5070858;28;20198;-76
2021/03/03 00:05:09;;;;;;;2.00;1.83;;;;;;;2.00;91.55;101879.75;5070914;28;20171;-76
2021/03/03 00:07:34;;;;;;;3.27;3.07;;;;;;;1.95;92.02;101889.56;5070304;28;20175;-76
2021/03/03 00:09:59;;;;;;;2.63;2.43;;;;;;;2.01;92.17;101894.06;5070687;28;20660;-75
2021/03/03 00:12:24;;;;;;;1.93;1.83;;;;;;;2.03;91.76;101887.44;5070937;28;20166;-76
2021/03/03 00:14:50;;;;;;;1.40;1.30;;;;;;;1.99;91.87;101896.16;5072645;28;20599;-75
2021/03/03 00:17:15;;;;;;;2.40;2.20;;;;;;;1.96;92.01;101894.72;5073527;28;20170;-77
2021/03/03 00:19:40;;;;;;;1.40;1.37;;;;;;;1.90;91.64;101900.16;5074787;28;20166;-76
2021/03/03 00:22:06;;;;;;;1.80;1.70;;;;;;;1.87;91.57;101884.41;5074733;28;20566;-76
2021/03/03 00:24:31;;;;;;;3.70;0.97;;;;;;;1.86;91.79;101891.69;5074923;28;20387;-76
2021/03/03 00:26:57;;;;;;;2.03;1.90;;;;;;;1.81;91.42;101885.31;5074440;28;20221;-76
2021/03/03 00:29:22;;;;;;;3.77;2.27;;;;;;;1.76;91.91;101894.03;5074854;28;20174;-76
2021/03/03 00:31:47;;;;;;;2.37;1.63;;;;;;;1.70;92.25;101882.25;5074658;28;20170;-75
2021/03/03 00:34:12;;;;;;;2.47;1.77;;;;;;;1.77;92.48;101880.34;5074420;28;20504;-76
2021/03/03 00:36:38;;;;;;;2.73;2.53;;;;;;;1.83;92.68;101881.34;5075206;28;20181;-77
2021/03/03 00:39:03;;;;;;;1.03;1.03;;;;;;;1.80;92.60;101879.09;5076714;28;20231;-77
2021/03/03 00:41:29;;;;;;;1.63;1.53;;;;;;;1.73;92.47;101876.41;5075071;28;20197;-76
2021/03/03 00:43:54;;;;;;;2.23;2.13;;;;;;;1.57;92.07;101870.72;5074322;28;20674;-76
2021/03/03 00:46:19;;;;;;;2.63;2.40;;;;;;;1.47;92.30;101876.59;5074006;28;20170;-76
2021/03/03 00:48:45;;;;;;;0.80;0.80;;;;;;;1.41;92.80;101866.69;5074192;28;20177;-76
2021/03/03 00:51:10;;;;;;;1.90;1.80;;;;;;;1.38;93.07;101864.41;5073596;28;20171;-77
2021/03/03 00:53:35;;;;;;;1.00;1.00;;;;;;;1.34;93.05;101860.53;5073804;28;20171;-76
2021/03/03 00:56:01;;;;;;;2.43;1.37;;;;;;;1.36;93.29;101863.81;5072223;28;20218;-75
2021/03/03 00:58:27;;;;;;;0.93;0.90;;;;;;;1.34;93.41;101858.66;5073424;28;20258;-77
2021/03/03 01:00:52;;;;;;;3.17;1.60;;;;;;;1.31;93.32;101856.41;5073750;28;20576;-76
2021/03/03 01:03:17;;;;;;;1.50;1.40;;;;;;;1.29;93.63;101846.84;5074151;28;20458;-76
2021/03/03 01:05:43;;;;;;;1.13;1.13;;;;;;;1.34;93.98;101836.28;5073566;28;20179;-75
2021/03/03 01:08:09;;;;;;;1.13;1.07;;;;;;;1.37;93.95;101839.38;5073028;28;20920;-76
2021/03/03 01:10:35;;;;;;;2.03;1.83;;;;;;;1.34;94.00;101836.28;5072328;28;20582;-76
2021/03/03 01:13:01;;;;;;;1.63;1.50;;;;;;;1.39;94.03;101828.38;5073581;28;20182;-77
2021/03/03 01:15:26;;;;;;;3.10;1.27;;;;;;;1.49;94.28;101834.13;5072585;28;20217;-77
2021/03/03 01:17:54;;;;;;;0.83;0.80;;;;;;;1.47;93.96;101833.53;5073153;28;20220;-76
2021/03/03 01:20:20;;;;;;;1.23;1.23;;;;;;;1.45;92.84;101822.97;5073398;28;20533;-77
2021/03/03 01:22:46;;;;;;;2.80;1.27;;;;;;;1.40;92.85;101821.94;5073690;28;20183;-76
2021/03/03 01:25:12;;;;;;;2.50;1.33;;;;;;;1.27;92.50;101822.03;5073274;28;20206;-77
2021/03/03 01:27:37;;;;;;;1.83;1.73;;;;;;;1.31;92.74;101826.78;5072888;28;20249;-76
2021/03/03 01:30:03;;;;;;;3.87;1.33;;;;;;;1.30;93.32;101826.97;5073239;28;20229;-76
2021/03/03 01:32:29;;;;;;;0.97;0.93;;;;;;;1.17;93.39;101822.50;5073135;28;20261;-76
2021/03/03 01:34:54;;;;;;;0.33;0.33;;;;;;;1.12;93.67;101825.81;5073057;28;20560;-76
2021/03/03 01:37:19;;;;;;;1.20;1.10;;;;;;;1.20;94.17;101819.38;5072708;28;20236;-76
2021/03/03 01:39:44;;;;;;;6.13;1.80;;;;;;;1.23;94.39;101816.25;5073195;28;20177;-76
2021/03/03 01:42:10;;;;;;;2.07;1.37;;;;;;;1.21;94.44;101818.34;5071557;28;20190;-77
2021/03/03 01:44:35;;;;;;;2.67;0.73;;;;;;;1.22;94.09;101813.78;5073179;28;20343;-77
2021/03/03 01:47:00;;;;;;;2.03;1.87;;;;;;;1.24;94.39;101809.00;5072878;28;20198;-76
2021/03/03 01:49:26;;;;;;;1.97;1.30;;;;;;;1.28;93.96;101802.97;5073047;28;20634;-76
2021/03/03 01:51:51;;;;;;;1.97;1.53;;;;;;;1.29;94.04;101803.78;5072716;28;20223;-77
2021/03/03 01:54:16;;;;;;;2.30;1.67;;;;;;;1.35;94.22;101806.44;5072689;28;20174;-77
2021/03/03 01:56:42;;;;;;;2.07;1.47;;;;;;;1.39;94.00;101801.44;5072410;28;20269;-76
2021/03/03 01:59:07;;;;;;;1.83;1.73;;;;;;;1.37;93.70;101798.16;5072804;28;20206;-76
2021/03/03 02:01:32;;;;;;;2.33;1.27;;;;;;;1.34;93.69;101801.28;5072731;28;20182;-76
2021/03/03 02:03:58;;;;;;;2.23;1.80;;;;;;;1.35;93.48;101798.38;5073103;28;20261;-76
2021/03/03 02:06:53;;;;;;;1.63;1.53;;;;;;;1.39;93.30;101793.38;5072165;28;20187;-76
2021/03/03 02:09:30;;;;;;;1.70;1.60;;;;;;;1.32;92.79;101787.22;5071679;28;20189;-77
2021/03/03 02:12:01;;;;;;;2.07;1.37;;;;;;;1.36;93.11;101788.44;5072686;28;20781;-76
2021/03/03 02:14:28;;;;;;;0.90;0.90;;;;;;;1.35;93.07;101784.91;5072463;28;20570;-76
2021/03/03 02:16:54;;;;;;;1.07;1.07;;;;;;;1.31;92.98;101781.00;5070968;28;20441;-77
2021/03/03 02:19:28;;;;;;;1.53;1.30;;;;;;;1.31;93.24;101789.09;5072502;28;20788;-77
2021/03/03 02:22:07;;;;;;;5.23;1.60;;;;;;;1.19;92.56;101785.44;5072400;28;20409;-77
2021/03/03 02:24:49;;;;;;;0.93;0.80;;;;;;;1.03;92.49;101776.00;5072223;28;20474;-76
2021/03/03 02:27:15;;;;;;;0.70;0.70;;;;;;;0.92;92.99;101776.69;5070788;28;20490;-76
2021/03/03 02:29:42;;;;;;;0.30;0.30;;;;;;;0.92;93.78;101767.78;5072120;28;21026;-77
2021/03/03 02:32:07;;;;;;;0.90;0.90;;;;;;;1.03;94.27;101777.88;5072066;28;20873;-77
2021/03/03 02:34:33;;;;;;;1.70;1.40;;;;;;;1.02;94.19;101768.97;5070573;28;20467;-76
2021/03/03 02:36:59;;;;;;;1.70;1.03;;;;;;;0.89;94.28;101766.34;5071132;28;20637;-77
2021/03/03 02:39:27;;;;;;;1.83;1.73;;;;;;;0.98;94.46;101766.91;5071937;28;20277;-77
2021/03/03 02:41:53;;;;;;;0.43;0.43;;;;;;;1.01;94.81;101769.97;5071739;28;20912;-77
2021/03/03 02:44:19;;;;;;;1.93;1.83;;;;;;;1.04;94.64;101768.75;5071695;28;20784;-77
2021/03/03 02:46:45;;;;;;;2.20;1.30;;;;;;;1.06;94.80;101758.59;5071538;28;20179;-77
2021/03/03 02:49:12;;;;;;;1.10;1.00;;;;;;;1.08;94.47;101762.72;5071849;28;20715;-76
2021/03/03 02:51:38;;;;;;;1.60;1.50;;;;;;;0.99;94.05;101761.31;5071727;28;20530;-76
2021/03/03 02:54:04;;;;;;;1.80;1.70;;;;;;;0.97;93.70;101758.00;5071553;28;20413;-76
2021/03/03 02:56:29;;;;;;;3.17;2.97;;;;;;;1.01;93.84;101759.22;5070835;28;20468;-77
2021/03/03 02:58:58;;;;;;;1.97;1.87;;;;;;;1.06;93.97;101767.50;5070308;28;20178;-76
2021/03/03 03:01:26;;;;;;;4.17;1.30;;;;;;;1.08;93.95;101767.28;5071528;28;20177;-77
2021/03/03 03:03:55;;;;;;;3.20;2.97;;;;;;;1.07;94.11;101762.94;5071582;28;20215;-76
2021/03/03 03:06:28;;;;;;;1.97;1.87;;;;;;;1.06;93.70;101756.72;5071217;28;20527;-77
2021/03/03 03:09:01;;;;;;;1.10;1.00;;;;;;;1.04;94.14;101768.75;5071419;28;20424;-76
2021/03/03 03:11:29;;;;;;;2.90;2.27;;;;;;;1.00;93.99;101760.25;5071402;28;20182;-77
2021/03/03 03:14:07;;;;;;;1.43;0.97;;;;;;;0.98;93.96;101764.22;5071086;28;20416;-76
2021/03/03 03:16:35;;;;;;;1.13;1.13;;;;;;;0.85;93.90;101765.94;5069159;28;20479;-76
2021/03/03 03:19:05;;;;;;;1.77;1.67;;;;;;;0.85;94.34;101770.47;5071299;28;20421;-76
2021/03/03 03:21:35;;;;;;;2.00;0.90;;;;;;;0.89;94.87;101769.88;5070998;28;20424;-75
2021/03/03 03:24:01;;;;;;;2.47;2.27;;;;;;;0.87;94.59;101766.56;5071396;28;20198;-76
2021/03/03 03:26:27;;;;;;;2.00;1.60;;;;;;;0.91;94.88;101774.19;5070761;28;20497;-77
2021/03/03 03:28:54;;;;;;;2.17;1.63;;;;;;;0.92;94.89;101767.78;5071298;28;20182;-78
2021/03/03 03:31:20;;;;;;;0.60;0.60;;;;;;;0.93;95.49;101772.94;5071056;28;20435;-77
2021/03/03 03:33:47;;;;;;;1.37;0.93;;;;;;;1.07;95.81;101769.13;5070936;28;20980;-76
2021/03/03 03:36:12;;;;;;;0.90;0.90;;;;;;;1.02;95.63;101765.47;5070620;28;20480;-77
2021/03/03 03:38:38;;;;;;;0.93;0.83;;;;;;;1.08;95.31;101764.59;5071410;28;20452;-77
2021/03/03 03:41:07;;;;;;;1.07;1.03;;;;;;;1.11;95.15;101767.66;5071069;28;20364;-76
2021/03/03 03:43:34;;;;;;;0.70;0.70;;;;;;;1.11;95.03;101767.66;5070906;28;20240;-78
2021/03/03 03:46:05;;;;;;;1.63;1.53;;;;;;;1.13;94.63;101764.75;5070817;28;20439;-76
2021/03/03 03:48:36;;;;;;;8.53;1.43;;;;;;;0.99;94.37;101777.44;5070020;28;20186;-77
2021/03/03 03:51:06;;;;;;;1.77;1.40;;;;;;;1.07;94.61;101774.53;5070796;28;20420;-78
2021/03/03 03:53:32;;;;;;;3.03;2.73;;;;;;;1.17;93.96;101769.50;5071243;28;20490;-77
2021/03/03 03:55:58;;;;;;;2.30;1.63;;;;;;;1.03;94.01;101764.41;5070584;28;20237;-77
2021/03/03 03:58:23;;;;;;;1.40;1.30;;;;;;;1.04;94.16;101758.00;5069139;28;20198;-76
2021/03/03 04:00:49;;;;;;;2.07;1.90;;;;;;;0.93;94.51;101766.75;5070787;28;20748;-77
2021/03/03 04:03:14;;;;;;;2.63;2.10;;;;;;;0.89;94.94;101766.34;5070708;28;20220;-77
2021/03/03 04:05:39;;;;;;;1.67;1.57;;;;;;;1.07;94.30;101762.94;5070699;28;20166;-76
2021/03/03 04:08:05;;;;;;;2.27;2.13;;;;;;;1.19;93.97;101767.41;5070420;28;20179;-77
2021/03/03 04:10:31;;;;;;;3.10;1.53;;;;;;;1.20;92.60;101762.84;5070746;28;20177;-77
2021/03/03 04:12:56;;;;;;;3.07;2.77;;;;;;;1.09;93.06;101761.66;5070637;28;20723;-77
2021/03/03 04:15:23;;;;;;;1.37;1.27;;;;;;;0.93;93.36;101758.66;5070487;28;20198;-76
2021/03/03 04:17:49;;;;;;;1.53;1.47;;;;;;;0.89;93.58;101756.41;5070191;28;20163;-75
2021/03/03 04:20:15;;;;;;;3.13;1.73;;;;;;;0.68;94.46;101758.56;5070872;28;20417;-77
2021/03/03 04:22:41;;;;;;;1.97;1.80;;;;;;;0.83;94.58;101765.31;5070630;28;20170;-76
2021/03/03 04:25:09;;;;;;;1.17;1.17;;;;;;;0.96;94.22;101766.31;5070398;28;20417;-77
2021/03/03 04:27:35;;;;;;;3.00;2.80;;;;;;;0.92;94.50;101757.84;5070162;28;20426;-77
2021/03/03 04:30:01;;;;;;;1.80;1.50;;;;;;;0.99;93.89;101758.63;5070719;28;20425;-76
2021/03/03 04:32:27;;;;;;;3.10;1.97;;;;;;;0.95;93.27;101753.88;5070350;28;20203;-76
2021/03/03 04:34:52;;;;;;;2.77;1.43;;;;;;;0.86;93.40;101754.13;5070396;28;20498;-76
2021/03/03 04:37:17;;;;;;;1.57;1.47;;;;;;;0.95;93.83;101751.19;5070078;28;20223;-77
2021/03/03 04:39:43;;;;;;;2.53;1.63;;;;;;;1.00;92.62;101752.19;5070361;28;20171;-76
2021/03/03 04:42:08;;;;;;;1.37;1.27;;;;;;;0.89;92.48;101748.34;5070236;28;20189;-77
2021/03/03 04:44:33;;;;;;;4.53;1.70;;;;;;;0.82;93.04;101744.84;5070265;28;20174;-77
2021/03/03 04:46:59;;;;;;;1.63;1.53;;;;;;;0.74;93.44;101747.78;5070763;28;20170;-76
2021/03/03 04:49:25;;;;;;;1.50;1.40;;;;;;;0.78;94.07;101743.63;5070830;28;20179;-77
2021/03/03 04:51:50;;;;;;;1.33;1.23;;;;;;;0.80;93.25;101735.34;5070555;28;20167;-76
2021/03/03 04:54:16;;;;;;;2.80;2.50;;;;;;;0.77;93.20;101736.59;5070434;28;20408;-76
2021/03/03 04:56:41;;;;;;;2.50;1.60;;;;;;;0.80;93.50;101729.97;5070010;28;20202;-77
2021/03/03 04:59:06;;;;;;;1.93;1.70;;;;;;;0.89;93.23;101728.69;5070265;28;20220;-76
2021/03/03 05:01:32;;;;;;;2.17;2.03;;;;;;;0.91;92.73;101731.16;5072040;28;20178;-77
2021/03/03 05:03:58;;;;;;;2.07;1.90;;;;;;;0.89;93.42;101734.06;5074148;28;20484;-77
2021/03/03 05:06:24;;;;;;;0.67;0.63;;;;;;;0.84;93.15;101732.00;5073688;28;20183;-76
2021/03/03 05:08:49;;;;;;;2.53;2.33;;;;;;;0.96;93.22;101737.53;5074128;28;20425;-76
2021/03/03 05:11:14;;;;;;;1.37;1.33;;;;;;;0.82;93.57;101726.00;5074083;28;20183;-76
2021/03/03 05:13:40;;;;;;;1.97;1.67;;;;;;;0.79;93.93;101729.13;5073905;28;20181;-77
2021/03/03 05:16:05;;;;;;;2.37;2.17;;;;;;;0.80;94.61;101722.72;5072831;28;20198;-76
2021/03/03 05:18:30;;;;;;;2.00;1.90;;;;;;;0.78;94.20;101718.59;5073754;28;20178;-76
2021/03/03 05:20:56;;;;;;;2.47;0.97;;;;;;;0.69;94.78;101725.25;5073708;28;20171;-76
2021/03/03 05:23:33;;;;;;;0.53;0.53;;;;;;;0.63;94.83;101718.06;5073962;28;20178;-77
2021/03/03 05:26:00;;;;;;;2.17;2.07;;;;;;;0.78;95.37;101722.13;5073558;28;20182;-77
2021/03/03 05:28:27;;;;;;;1.47;1.37;;;;;;;0.98;96.14;101722.00;5073476;28;20417;-76
2021/03/03 05:30:52;;;;;;;1.07;0.97;;;;;;;0.93;95.89;101716.44;5073637;28;20412;-77
2021/03/03 05:33:44;;;;;;;1.67;0.97;;;;;;;1.04;96.13;101720.31;5072148;28;20987;-77
2021/03/03 05:36:10;;;;;;;3.47;1.10;;;;;;;0.98;95.75;101715.78;5069721;28;20214;-77
2021/03/03 05:38:37;;;;;;;2.80;1.43;;;;;;;0.94;95.29;101710.03;5073882;28;20524;-77
2021/03/03 05:41:03;;;;;;;2.03;1.67;;;;;;;0.91;95.45;101718.53;5073700;28;20419;-77
2021/03/03 05:43:33;;;;;;;1.57;0.90;;;;;;;1.01;95.51;101718.03;5072169;28;20420;-78
2021/03/03 05:45:59;;;;;;;2.77;2.13;;;;;;;0.99;95.36;101720.94;5071916;28;20417;-77
2021/03/03 05:48:32;;;;;;;1.83;1.50;;;;;;;0.95;95.22;101727.81;5072960;28;20416;-77
2021/03/03 05:51:02;;;;;;;1.63;1.53;;;;;;;0.92;95.09;101717.47;5073400;28;20448;-76
2021/03/03 05:53:29;;;;;;;1.90;1.17;;;;;;;0.84;94.28;101718.56;5072094;28;20423;-76
2021/03/03 05:55:56;;;;;;;1.70;1.50;;;;;;;0.80;94.40;101725.41;5072967;28;20466;-77
2021/03/03 05:58:23;;;;;;;3.63;2.00;;;;;;;0.71;94.42;101720.47;5072494;28;20435;-77
2021/03/03 06:00:50;;;;;;;6.23;1.90;;;;;;;0.67;94.43;101717.41;5071691;28;20420;-77
2021/03/03 06:03:17;;;;;;;1.67;1.57;;;;;;;0.68;94.46;101713.69;5073013;28;21134;-77
2021/03/03 06:05:46;;;;;;;1.43;1.33;;;;;;;0.74;94.78;101712.00;5073062;28;20888;-76
2021/03/03 06:08:16;;;;;;;2.47;2.27;;;;;;;0.79;95.58;101714.88;5072446;28;20413;-77
2021/03/03 06:10:42;;;;;;;2.37;2.13;;;;;;;0.98;95.49;101711.22;5073080;28;20409;-76
2021/03/03 06:13:07;;;;;;;3.33;2.60;;;;;;;0.89;94.84;101717.94;5072150;28;20965;-77
2021/03/03 06:15:33;;;;;;;3.30;2.70;;;;;;;0.92;94.84;101706.72;5072066;28;20210;-76
2021/03/03 06:17:58;;;;;;;1.47;1.27;;;;;;;0.92;94.55;101705.91;5071121;28;20182;-78
2021/03/03 06:20:24;;;;;;;1.20;1.20;;;;;;;0.95;94.58;101705.47;5073023;28;20219;-77
2021/03/03 06:22:49;;;;;;;2.17;1.97;;;;;;;0.92;94.49;101706.72;5071210;28;20250;-77
2021/03/03 06:25:22;;;;;;;1.90;1.80;;;;;;;0.92;94.37;101706.72;5072823;28;20205;-77
2021/03/03 06:27:49;;;;;;;3.00;2.73;;;;;;;0.91;94.16;101702.38;5072321;28;20698;-76
2021/03/03 06:30:16;;;;;;;2.43;2.30;;;;;;;0.87;94.39;101702.00;5072652;28;20427;-76
2021/03/03 06:33:03;;;;;;;3.23;3.03;;;;;;;0.86;94.04;101707.56;5072474;28;20413;-76
2021/03/03 06:35:49;;;;;;;1.70;1.67;;;;;;;0.90;95.33;101706.13;5072555;28;20457;-76
2021/03/03 06:38:16;;;;;;;1.87;1.77;;;;;;;1.00;95.19;101711.84;5072335;28;20763;-76
2021/03/03 06:40:48;;;;;;;3.03;2.83;;;;;;;0.97;95.42;101708.75;5072417;28;20420;-78
2021/03/03 06:43:25;;;;;;;2.07;1.83;;;;;;;0.98;95.49;101708.53;5072091;28;20967;-77
2021/03/03 06:45:52;;;;;;;3.63;3.33;;;;;;;1.01;95.62;101700.03;5071142;28;20459;-77
2021/03/03 06:48:43;;;;;;;2.60;1.80;;;;;;;1.12;95.12;101711.97;5074707;28;20864;-77
2021/03/03 06:51:31;;;;;;;2.70;2.53;;;;;;;1.12;95.50;101706.59;5074208;28;20493;-78
2021/03/03 06:53:59;;;;;;;6.30;1.40;;;;;;;1.04;94.96;101704.19;5072025;28;20413;-77
2021/03/03 06:56:34;;;;;;;3.20;2.30;;;;;;;1.08;95.57;101708.91;5071594;28;20539;-77
2021/03/03 06:59:10;;;;;;;0.90;0.90;;;;;;;1.20;95.64;101703.66;5071711;28;20179;-77
2021/03/03 07:01:35;;;;;;;1.77;1.67;;;;;;;1.30;96.27;101714.75;5071791;28;20408;-78
2021/03/03 07:04:01;;;;;;;3.90;3.30;;;;;;;1.41;96.56;101705.13;5071715;28;20465;-78
2021/03/03 07:06:33;;;;;;;2.37;1.90;;;;;;;1.54;96.52;101709.59;5070847;28;20175;-78
2021/03/03 07:08:59;;;;;;;2.97;2.83;;;;;;;1.60;96.36;101709.53;5071497;28;20182;-78
2021/03/03 07:11:28;;;;;;;3.20;2.90;;;;;;;1.70;95.86;101709.84;5071426;28;20504;-75
2021/03/03 07:13:55;;;;;;;4.13;2.53;;;;;;;1.83;95.67;101708.06;5071518;28;20550;-76
2021/03/03 07:16:20;;;;;;;3.47;2.97;;;;;;;1.85;95.44;101711.38;5069912;28;20471;-76
2021/03/03 07:18:46;;;;;;;1.60;1.50;;;;;;;1.85;95.41;101706.81;5071141;28;20421;-78
2021/03/03 07:21:11;;;;;;;3.93;3.60;;;;;;;1.88;95.65;101709.06;5071661;28;20171;-78
2021/03/03 07:23:40;;;;;;;3.03;2.83;;;;;;;1.97;96.69;101717.69;5071120;28;20640;-76
2021/03/03 07:26:06;;;;;;;5.23;3.23;;;;;;;2.12;96.88;101711.91;5070737;28;20182;-78
2021/03/03 07:28:32;;;;;;;6.13;2.67;;;;;;;2.22;96.37;101715.75;5070949;28;20792;-77
2021/03/03 07:30:58;;;;;;;3.40;2.90;;;;;;;2.31;96.15;101713.56;5071356;28;20296;-78
2021/03/03 07:33:24;;;;;;;3.90;2.63;;;;;;;2.37;96.06;101715.38;5070910;28;20179;-78
2021/03/03 07:35:50;;;;;;;3.97;2.80;;;;;;;2.53;95.92;101700.44;5070715;28;20202;-78
2021/03/03 07:38:17;;;;;;;4.60;3.53;;;;;;;2.66;95.86;101702.97;5070451;28;20421;-78
2021/03/03 07:40:43;;;;;;;4.73;4.33;;;;;;;2.81;95.63;101706.09;5071009;28;20178;-78
2021/03/03 07:43:09;;;;;;;2.53;2.33;;;;;;;3.02;94.95;101704.75;5070913;28;20235;-77
2021/03/03 07:45:40;;;;;;;4.70;3.07;;;;;;;3.21;94.43;101700.13;5070953;28;20179;-77
2021/03/03 07:48:06;;;;;;;5.50;3.97;;;;;;;3.33;93.97;101695.56;5070710;28;20166;-78
2021/03/03 07:50:32;;;;;;;5.37;4.83;;;;;;;3.45;93.51;101701.78;5070917;28;20167;-77
2021/03/03 07:52:57;;;;;;;4.23;3.73;;;;;;;3.50;92.98;101696.53;5069700;28;20692;-76
2021/03/03 07:55:26;;;;;;;5.53;5.07;;;;;;;3.48;92.16;101701.34;5070666;28;20199;-77
2021/03/03 07:57:54;;;;;;;5.17;4.47;;;;;;;3.51;92.05;101700.88;5070373;28;20206;-78
2021/03/03 08:00:25;;;;;;;6.30;5.70;;;;;;;3.51;92.01;101703.56;5070710;28;20178;-77
2021/03/03 08:02:52;;;;;;;5.30;4.90;;;;;;;3.75;91.72;101695.47;5070840;28;20171;-78
2021/03/03 08:05:34;;;;;;;4.80;4.40;;;;;;;3.87;91.57;101693.59;5070892;28;20174;-75
2021/03/03 08:08:24;;;;;;;5.47;4.17;;;;;;;3.92;91.35;101695.59;5070334;28;20174;-77
2021/03/03 08:10:51;;;;;;;3.80;3.50;;;;;;;4.05;91.16;101706.16;5071225;28;20167;-75
2021/03/03 08:13:31;;;;;;;6.23;5.63;;;;;;;4.00;90.41;101701.47;5070731;28;20176;-79
2021/03/03 08:16:01;;;;;;;5.17;4.77;;;;;;;4.22;89.48;101698.97;5069573;28;20209;-76
2021/03/03 08:18:37;;;;;;;5.67;5.27;;;;;;;4.43;88.56;101698.31;5070174;28;20177;-77
2021/03/03 08:21:08;;;;;;;4.53;4.13;;;;;;;4.57;87.91;101695.34;5070595;28;20170;-78
2021/03/03 08:23:33;;;;;;;3.73;3.43;;;;;;;4.70;87.41;101687.75;5070497;28;20262;-78
2021/03/03 08:26:15;;;;;;;4.37;3.97;;;;;;;4.80;86.97;101686.31;5070531;28;20759;-77
2021/03/03 08:28:47;;;;;;;4.20;3.47;;;;;;;4.87;86.37;101684.28;5070439;28;20197;-77
2021/03/03 08:31:15;;;;;;;4.43;4.00;;;;;;;4.88;86.32;101680.50;5070642;28;20186;-77
2021/03/03 08:33:45;;;;;;;3.70;3.40;;;;;;;4.86;86.49;101688.88;5070380;28;20258;-78
2021/03/03 08:36:31;;;;;;;3.87;3.57;;;;;;;4.88;86.66;101675.91;5071012;28;20218;-77
2021/03/03 08:38:56;;;;;;;4.37;3.43;;;;;;;5.07;86.50;101680.06;5066938;28;20218;-78
2021/03/03 08:41:28;;;;;;;6.40;5.87;;;;;;;5.15;87.06;101683.41;5074143;28;20609;-78
2021/03/03 08:44:09;;;;;;;6.27;5.70;;;;;;;5.20;87.84;101673.47;5074840;28;20524;-78
2021/03/03 08:46:39;;;;;;;4.83;4.37;;;;;;;5.34;88.41;101674.81;5073922;28;20240;-79
2021/03/03 08:49:04;;;;;;;4.67;4.10;;;;;;;5.59;88.52;101676.28;5074261;28;20189;-78
2021/03/03 08:51:32;;;;;;;4.10;3.80;;;;;;;5.61;88.56;101676.84;5074310;28;20277;-79
2021/03/03 08:53:59;;;;;;;3.40;3.20;;;;;;;5.76;86.26;101676.25;5073942;28;20179;-78
2021/03/03 08:56:45;;;;;;;2.63;2.43;;;;;;;6.01;84.63;101667.69;5073520;28;20220;-78
2021/03/03 08:59:13;;;;;;;3.83;3.53;;;;;;;6.10;85.33;101669.75;5073915;28;20186;-78
2021/03/03 09:02:20;;;;;;;3.70;3.40;;;;;;;6.20;84.54;101669.03;5073960;28;20204;-78
2021/03/03 09:04:54;;;;;;;3.20;3.00;;;;;;;6.30;83.93;101671.88;5031421;28;20179;-78
2021/03/03 09:07:26;;;;;;;4.10;3.80;;;;;;;6.39;83.29;101662.22;5064142;28;20194;-78
2021/03/03 09:10:00;;;;;;;3.57;3.27;;;;;;;6.57;81.73;101659.19;5066593;28;20182;-78
2021/03/03 09:12:30;;;;;;;4.03;2.97;;;;;;;6.73;81.46;101660.16;5073810;28;20216;-78
2021/03/03 09:14:57;;;;;;;2.70;2.50;;;;;;;6.99;83.06;101657.72;5073625;28;20214;-79
2021/03/03 09:17:31;;;;;;;2.17;2.07;;;;;;;7.27;81.82;101662.03;5071372;28;20587;-77
2021/03/03 09:19:58;;;;;;;3.47;3.00;;;;;;;7.61;78.76;101654.41;5073201;28;20658;-77
2021/03/03 09:22:26;;;;;;;3.10;2.90;;;;;;;7.76;79.44;101651.78;5073567;28;20182;-78
2021/03/03 09:25:03;;;;;;;4.47;3.53;;;;;;;7.86;79.39;101645.56;5073132;28;20178;-78
2021/03/03 09:27:28;;;;;;;1.37;1.27;;;;;;;8.44;70.12;101654.59;5071898;28;20253;-78
2021/03/03 09:29:56;;;;;;;1.80;1.53;;;;;;;8.86;69.25;101655.25;5073400;28;20603;-77
2021/03/03 09:32:21;;;;;;;5.10;2.77;;;;;;;8.87;72.47;101645.16;5073359;28;20476;-78
2021/03/03 09:35:00;;;;;;;5.23;3.33;;;;;;;8.73;75.46;101647.59;5072101;28;20719;-79
2021/03/03 09:37:26;;;;;;;2.77;2.53;;;;;;;8.93;70.24;101658.50;5073121;28;20250;-78
2021/03/03 09:39:53;;;;;;;2.67;2.47;;;;;;;9.11;66.61;101645.44;5073252;28;20258;-78
2021/03/03 09:42:19;;;;;;;1.83;1.53;;;;;;;9.53;66.27;101635.06;5072889;28;20190;-78
2021/03/03 09:44:49;;;;;;;2.37;2.00;;;;;;;9.73;64.76;101633.41;5073284;28;20183;-77
2021/03/03 09:47:35;;;;;;;1.67;1.23;;;;;;;9.88;61.91;101641.56;5070030;28;20657;-77
2021/03/03 09:50:08;;;;;;;2.00;1.80;;;;;;;10.32;59.95;101633.50;5073252;28;20183;-78
2021/03/03 09:52:39;;;;;;;2.50;1.60;;;;;;;10.50;59.46;101634.78;5073211;28;20187;-77
2021/03/03 09:55:07;;;;;;;3.07;0.93;;;;;;;10.71;58.84;101633.56;5072830;28;20206;-75
2021/03/03 09:57:32;;;;;;;1.57;1.47;;;;;;;10.75;58.06;101630.28;5072582;28;20178;-79
2021/03/03 09:59:58;;;;;;;1.70;1.60;;;;;;;10.82;57.31;101634.31;5072846;28;20193;-86
2021/03/03 10:02:25;;;;;;;2.77;2.00;;;;;;;10.85;56.60;101627.44;5071519;28;20186;-76
2021/03/03 10:04:52;;;;;;;3.37;1.67;;;;;;;10.83;55.80;101622.25;5072880;28;20170;-76
2021/03/03 10:07:23;;;;;;;1.90;1.33;;;;;;;10.83;57.41;101624.19;5072400;28;20782;-75
2021/03/03 10:09:53;;;;;;;1.70;1.53;;;;;;;10.91;57.52;101615.38;5072766;28;20167;-75
2021/03/03 10:12:24;;;;;;;2.77;2.57;;;;;;;10.95;56.53;101624.66;5072554;28;20178;-75
2021/03/03 10:15:10;;;;;;;1.40;1.33;;;;;;;11.00;57.00;101624.63;5071291;28;20178;-75
2021/03/03 10:17:44;;;;;;;2.47;1.47;;;;;;;11.10;55.54;101618.25;5058599;28;20175;-75
2021/03/03 10:20:25;;;;;;;1.90;1.27;;;;;;;11.20;55.07;101605.31;5051746;28;20160;-76
2021/03/03 10:22:51;;;;;;;2.03;1.47;;;;;;;11.20;56.23;101608.03;5051924;28;20171;-76
2021/03/03 10:25:16;;;;;;;1.30;1.03;;;;;;;11.35;55.71;101607.09;5052107;28;20543;-75
2021/03/03 10:27:41;;;;;;;1.70;1.60;;;;;;;11.46;55.61;101611.38;5051455;28;20190;-74
2021/03/03 10:30:25;;;;;;;2.17;2.07;;;;;;;11.68;55.19;101610.03;5051932;28;20175;-75
2021/03/03 10:32:53;;;;;;;1.60;1.50;;;;;;;11.76;54.59;101604.75;5051830;28;20218;-75
2021/03/03 10:35:19;;;;;;;1.73;1.63;;;;;;;11.73;55.75;101604.53;5051773;28;20801;-75
2021/03/03 10:37:44;;;;;;;2.27;2.07;;;;;;;11.58;58.22;101598.13;5051210;28;20255;-75
2021/03/03 10:40:13;;;;;;;2.53;2.33;;;;;;;11.77;56.97;101597.34;5051552;28;20689;-75
2021/03/03 10:42:39;;;;;;;2.73;2.53;;;;;;;12.03;54.64;101597.91;5051537;28;20191;-74
2021/03/03 10:45:16;;;;;;;2.70;2.30;;;;;;;12.24;54.41;101598.47;5051508;28;20176;-74
2021/03/03 10:47:42;;;;;;;2.00;1.80;;;;;;;12.40;52.40;101594.41;5051222;28;20666;-75
2021/03/03 10:50:09;;;;;;;1.70;1.60;;;;;;;12.51;53.30;101596.72;5051448;28;20178;-75
2021/03/03 10:52:35;;;;;;;2.43;2.33;;;;;;;12.66;52.78;101594.84;5051912;28;20179;-75
2021/03/03 10:55:00;;;;;;;2.67;2.47;;;;;;;12.69;51.51;101597.81;5051592;28;20269;-75
2021/03/03 10:57:26;;;;;;;4.10;3.77;;;;;;;12.70;52.15;101593.13;5050872;28;20490;-74
2021/03/03 11:00:03;;;;;;;3.43;2.57;;;;;;;12.69;51.25;101595.06;5051090;28;20700;-74
2021/03/03 11:02:29;;;;;;;9.30;3.03;;;;;;;12.66;51.04;101594.84;5051257;28;20217;-74
2021/03/03 11:04:54;;;;;;;1.50;1.40;;;;;;;12.65;50.37;101588.56;5051607;28;20179;-74
2021/03/03 11:07:19;;;;;;;3.43;2.20;;;;;;;12.63;51.17;101581.75;5050705;28;20578;-74
2021/03/03 11:09:50;;;;;;;2.57;2.47;;;;;;;12.60;52.16;101574.13;5051225;28;20258;-74
2021/03/03 11:12:25;;;;;;;1.60;1.50;;;;;;;12.68;51.28;101571.50;5053165;28;20544;-74
2021/03/03 11:14:50;;;;;;;2.63;2.43;;;;;;;12.71;51.64;101570.09;5068808;28;20196;-75
2021/03/03 11:17:16;;;;;;;2.67;2.57;;;;;;;12.76;51.13;101578.25;5070356;28;20171;-74
2021/03/03 11:19:43;;;;;;;2.17;1.80;;;;;;;12.77;51.02;101566.16;5071475;28;20649;-75
2021/03/03 11:22:08;;;;;;;3.63;3.33;;;;;;;12.90;50.48;101568.16;5071691;28;20174;-75
2021/03/03 11:24:34;;;;;;;2.53;1.13;;;;;;;12.95;50.60;101568.06;5071272;28;20197;-74
2021/03/03 11:26:59;;;;;;;2.30;2.10;;;;;;;13.01;51.39;101563.28;5070862;28;20205;-75
2021/03/03 11:29:24;;;;;;;2.13;2.03;;;;;;;12.90;51.44;101567.34;5071478;28;20619;-74
2021/03/03 11:31:50;;;;;;;3.83;2.43;;;;;;;12.77;52.01;101556.00;5071265;28;20220;-74
2021/03/03 11:34:15;;;;;;;4.57;2.67;;;;;;;12.84;52.92;101552.06;5071341;28;20584;-76
2021/03/03 11:36:41;;;;;;;3.60;3.30;;;;;;;12.90;51.93;101550.88;5070700;28;20214;-75